sensor_id;sensor_type;location;lat;lon;timestamp;temperature;humidity
67157;SHT31;54086;50.126;8.710;2023-09-19T00:00:57;17.40;96.40
67157;SHT31;54086;50.126;8.710;2023-09-19T00:03:23;17.47;96.44
67157;SHT31;54086;50.126;8.710;2023-09-19T00:05:49;17.54;96.29
67157;SHT31;54086;50.126;8.710;2023-09-19T00:08:15;17.49;96.38
67157;SHT31;54086;50.126;8.710;2023-09-19T00:10:41;17.40;96.61
67157;SHT31;54086;50.126;8.710;2023-09-19T00:13:07;17.39;96.45
67157;SHT31;54086;50.126;8.710;2023-09-19T00:15:40;17.46;96.22
67157;SHT31;54086;50.126;8.710;2023-09-19T00:18:07;17.46;96.24
67157;SHT31;54086;50.126;8.710;2023-09-19T00:20:35;17.45;96.07
67157;SHT31;54086;50.126;8.710;2023-09-19T00:23:01;17.47;96.30
67157;SHT31;54086;50.126;8.710;2023-09-19T00:25:35;17.52;95.96
67157;SHT31;54086;50.126;8.710;2023-09-19T00:28:01;17.56;95.87
67157;SHT31;54086;50.126;8.710;2023-09-19T00:30:26;17.54;95.94
67157;SHT31;54086;50.126;8.710;2023-09-19T00:32:52;17.57;95.64
67157;SHT31;54086;50.126;8.710;2023-09-19T00:35:18;17.62;95.64
67157;SHT31;54086;50.126;8.710;2023-09-19T00:37:49;17.65;95.68
67157;SHT31;54086;50.126;8.710;2023-09-19T00:40:14;17.70;95.41
67157;SHT31;54086;50.126;8.710;2023-09-19T00:42:44;17.63;95.53
67157;SHT31;54086;50.126;8.710;2023-09-19T00:45:11;17.53;95.41
67157;SHT31;54086;50.126;8.710;2023-09-19T00:47:42;17.47;95.43
67157;SHT31;54086;50.126;8.710;2023-09-19T00:50:09;17.42;95.41
67157;SHT31;54086;50.126;8.710;2023-09-19T00:52:36;17.39;95.68
67157;SHT31;54086;50.126;8.710;2023-09-19T00:55:08;17.42;95.63
67157;SHT31;54086;50.126;8.710;2023-09-19T00:57:35;17.40;95.68
67157;SHT31;54086;50.126;8.710;2023-09-19T01:00:03;17.45;95.69
67157;SHT31;54086;50.126;8.710;2023-09-19T01:02:33;17.43;95.42
67157;SHT31;54086;50.126;8.710;2023-09-19T01:04:59;17.60;95.27
67157;SHT31;54086;50.126;8.710;2023-09-19T01:07:30;17.62;95.37
67157;SHT31;54086;50.126;8.710;2023-09-19T01:10:00;17.72;94.98
67157;SHT31;54086;50.126;8.710;2023-09-19T01:12:34;17.73;94.69
67157;SHT31;54086;50.126;8.710;2023-09-19T01:15:14;17.74;94.66
67157;SHT31;54086;50.126;8.710;2023-09-19T01:17:48;17.72;94.60
67157;SHT31;54086;50.126;8.710;2023-09-19T01:20:27;17.67;94.72
67157;SHT31;54086;50.126;8.710;2023-09-19T01:23:19;17.73;94.35
67157;SHT31;54086;50.126;8.710;2023-09-19T01:31:19;17.66;94.95
67157;SHT31;54086;50.126;8.710;2023-09-19T01:34:02;17.66;94.64
67157;SHT31;54086;50.126;8.710;2023-09-19T01:36:34;17.67;94.47
67157;SHT31;54086;50.126;8.710;2023-09-19T01:39:05;17.69;94.40
67157;SHT31;54086;50.126;8.710;2023-09-19T01:42:00;17.69;94.59
67157;SHT31;54086;50.126;8.710;2023-09-19T01:44:43;17.63;94.80
67157;SHT31;54086;50.126;8.710;2023-09-19T01:47:32;17.47;94.81
67157;SHT31;54086;50.126;8.710;2023-09-19T01:50:12;17.56;94.75
67157;SHT31;54086;50.126;8.710;2023-09-19T01:52:45;17.49;94.81
67157;SHT31;54086;50.126;8.710;2023-09-19T01:55:14;17.53;94.85
67157;SHT31;54086;50.126;8.710;2023-09-19T01:57:51;17.49;94.92
67157;SHT31;54086;50.126;8.710;2023-09-19T02:00:21;17.49;94.93
67157;SHT31;54086;50.126;8.710;2023-09-19T02:02:49;17.46;95.01
67157;SHT31;54086;50.126;8.710;2023-09-19T02:05:22;17.47;95.17
67157;SHT31;54086;50.126;8.710;2023-09-19T02:07:49;17.39;95.11
67157;SHT31;54086;50.126;8.710;2023-09-19T02:10:15;17.36;95.30
67157;SHT31;54086;50.126;8.710;2023-09-19T02:12:42;17.36;95.34
67157;SHT31;54086;50.126;8.710;2023-09-19T02:15:08;17.33;95.37
67157;SHT31;54086;50.126;8.710;2023-09-19T02:17:34;17.35;95.45
67157;SHT31;54086;50.126;8.710;2023-09-19T02:19:59;17.33;95.21
67157;SHT31;54086;50.126;8.710;2023-09-19T02:22:26;17.31;95.27
67157;SHT31;54086;50.126;8.710;2023-09-19T02:24:51;17.23;95.38
67157;SHT31;54086;50.126;8.710;2023-09-19T02:27:18;17.28;95.38
67157;SHT31;54086;50.126;8.710;2023-09-19T02:29:43;17.33;95.43
67157;SHT31;54086;50.126;8.710;2023-09-19T02:32:08;17.33;95.12
67157;SHT31;54086;50.126;8.710;2023-09-19T02:34:37;17.33;95.07
67157;SHT31;54086;50.126;8.710;2023-09-19T02:37:04;17.36;94.97
67157;SHT31;54086;50.126;8.710;2023-09-19T02:39:34;17.38;94.98
67157;SHT31;54086;50.126;8.710;2023-09-19T02:42:01;17.47;94.47
67157;SHT31;54086;50.126;8.710;2023-09-19T02:44:26;17.47;93.93
67157;SHT31;54086;50.126;8.710;2023-09-19T02:46:52;17.53;93.81
67157;SHT31;54086;50.126;8.710;2023-09-19T02:49:18;17.59;93.69
67157;SHT31;54086;50.126;8.710;2023-09-19T02:51:44;17.60;93.56
67157;SHT31;54086;50.126;8.710;2023-09-19T02:54:09;17.53;93.41
67157;SHT31;54086;50.126;8.710;2023-09-19T02:56:36;17.49;93.32
67157;SHT31;54086;50.126;8.710;2023-09-19T02:59:02;17.47;93.88
67157;SHT31;54086;50.126;8.710;2023-09-19T03:01:28;17.35;94.57
67157;SHT31;54086;50.126;8.710;2023-09-19T03:03:54;17.15;95.07
67157;SHT31;54086;50.126;8.710;2023-09-19T03:06:20;17.02;95.70
67157;SHT31;54086;50.126;8.710;2023-09-19T03:08:46;16.87;96.35
67157;SHT31;54086;50.126;8.710;2023-09-19T03:11:12;16.84;96.49
67157;SHT31;54086;50.126;8.710;2023-09-19T03:13:39;16.75;96.65
67157;SHT31;54086;50.126;8.710;2023-09-19T03:16:05;16.68;96.82
67157;SHT31;54086;50.126;8.710;2023-09-19T03:18:32;16.67;96.92
67157;SHT31;54086;50.126;8.710;2023-09-19T03:20:57;16.67;96.91
67157;SHT31;54086;50.126;8.710;2023-09-19T03:23:25;16.64;96.89
67157;SHT31;54086;50.126;8.710;2023-09-19T03:25:51;16.63;96.92
67157;SHT31;54086;50.126;8.710;2023-09-19T03:28:17;16.60;96.97
67157;SHT31;54086;50.126;8.710;2023-09-19T03:30:43;16.61;96.98
67157;SHT31;54086;50.126;8.710;2023-09-19T03:33:09;16.61;96.82
67157;SHT31;54086;50.126;8.710;2023-09-19T03:35:37;16.64;96.59
67157;SHT31;54086;50.126;8.710;2023-09-19T03:38:04;16.59;96.35
67157;SHT31;54086;50.126;8.710;2023-09-19T03:40:30;16.65;96.31
67157;SHT31;54086;50.126;8.710;2023-09-19T03:42:55;16.67;96.02
67157;SHT31;54086;50.126;8.710;2023-09-19T03:45:20;16.59;96.17
67157;SHT31;54086;50.126;8.710;2023-09-19T03:47:46;16.60;96.08
67157;SHT31;54086;50.126;8.710;2023-09-19T03:50:15;16.54;96.06
67157;SHT31;54086;50.126;8.710;2023-09-19T03:52:43;16.57;96.13
67157;SHT31;54086;50.126;8.710;2023-09-19T03:55:08;16.57;95.82
67157;SHT31;54086;50.126;8.710;2023-09-19T03:57:35;16.53;95.76
67157;SHT31;54086;50.126;8.710;2023-09-19T04:00:01;16.50;95.75
67157;SHT31;54086;50.126;8.710;2023-09-19T04:02:26;16.50;95.53
67157;SHT31;54086;50.126;8.710;2023-09-19T04:04:58;16.44;95.55
67157;SHT31;54086;50.126;8.710;2023-09-19T04:07:23;16.49;95.48
67157;SHT31;54086;50.126;8.710;2023-09-19T04:09:51;16.49;95.14
67157;SHT31;54086;50.126;8.710;2023-09-19T04:12:18;16.53;94.89
67157;SHT31;54086;50.126;8.710;2023-09-19T04:14:44;16.52;94.79
67157;SHT31;54086;50.126;8.710;2023-09-19T04:17:10;16.56;94.62
67157;SHT31;54086;50.126;8.710;2023-09-19T04:19:36;16.60;94.18
67157;SHT31;54086;50.126;8.710;2023-09-19T04:22:01;16.56;94.02
67157;SHT31;54086;50.126;8.710;2023-09-19T04:24:28;16.59;93.85
67157;SHT31;54086;50.126;8.710;2023-09-19T04:26:53;16.60;93.52
67157;SHT31;54086;50.126;8.710;2023-09-19T04:29:18;16.68;93.45
67157;SHT31;54086;50.126;8.710;2023-09-19T04:31:44;16.67;92.89
67157;SHT31;54086;50.126;8.710;2023-09-19T04:34:11;16.68;92.44
67157;SHT31;54086;50.126;8.710;2023-09-19T04:36:42;16.71;92.17
67157;SHT31;54086;50.126;8.710;2023-09-19T04:39:08;16.75;92.10
67157;SHT31;54086;50.126;8.710;2023-09-19T04:41:36;16.84;91.69
67157;SHT31;54086;50.126;8.710;2023-09-19T04:44:05;16.83;91.31
67157;SHT31;54086;50.126;8.710;2023-09-19T04:46:30;16.83;90.68
67157;SHT31;54086;50.126;8.710;2023-09-19T04:48:55;16.83;90.63
67157;SHT31;54086;50.126;8.710;2023-09-19T04:51:21;16.81;90.73
67157;SHT31;54086;50.126;8.710;2023-09-19T04:53:46;16.80;90.38
67157;SHT31;54086;50.126;8.710;2023-09-19T04:56:13;16.83;90.33
67157;SHT31;54086;50.126;8.710;2023-09-19T04:58:38;16.81;90.55
67157;SHT31;54086;50.126;8.710;2023-09-19T05:01:04;16.80;90.78
67157;SHT31;54086;50.126;8.710;2023-09-19T05:03:29;16.75;90.39
67157;SHT31;54086;50.126;8.710;2023-09-19T05:05:55;16.74;90.10
67157;SHT31;54086;50.126;8.710;2023-09-19T05:08:20;16.77;90.12
67157;SHT31;54086;50.126;8.710;2023-09-19T05:10:47;16.78;89.93
67157;SHT31;54086;50.126;8.710;2023-09-19T05:13:14;16.77;89.82
67157;SHT31;54086;50.126;8.710;2023-09-19T05:15:39;16.84;89.69
67157;SHT31;54086;50.126;8.710;2023-09-19T05:18:05;16.87;89.07
67157;SHT31;54086;50.126;8.710;2023-09-19T05:20:32;16.89;89.00
67157;SHT31;54086;50.126;8.710;2023-09-19T05:23:02;16.96;89.02
67157;SHT31;54086;50.126;8.710;2023-09-19T05:25:35;16.94;89.20
67157;SHT31;54086;50.126;8.710;2023-09-19T05:28:08;16.91;89.49
67157;SHT31;54086;50.126;8.710;2023-09-19T05:30:34;16.88;89.90
67157;SHT31;54086;50.126;8.710;2023-09-19T05:33:02;16.80;90.38
67157;SHT31;54086;50.126;8.710;2023-09-19T05:35:27;16.78;90.58
67157;SHT31;54086;50.126;8.710;2023-09-19T05:37:53;16.70;90.91
67157;SHT31;54086;50.126;8.710;2023-09-19T05:40:20;16.67;90.94
67157;SHT31;54086;50.126;8.710;2023-09-19T05:42:46;16.68;91.14
67157;SHT31;54086;50.126;8.710;2023-09-19T05:45:12;16.68;90.98
67157;SHT31;54086;50.126;8.710;2023-09-19T05:47:42;16.74;90.83
67157;SHT31;54086;50.126;8.710;2023-09-19T05:50:09;16.75;90.51
67157;SHT31;54086;50.126;8.710;2023-09-19T05:52:41;16.74;90.18
67157;SHT31;54086;50.126;8.710;2023-09-19T05:55:08;16.70;90.30
67157;SHT31;54086;50.126;8.710;2023-09-19T05:57:34;16.64;90.16
67157;SHT31;54086;50.126;8.710;2023-09-19T06:00:00;16.74;90.05
67157;SHT31;54086;50.126;8.710;2023-09-19T06:02:25;16.77;89.02
67157;SHT31;54086;50.126;8.710;2023-09-19T06:04:54;16.87;88.58
67157;SHT31;54086;50.126;8.710;2023-09-19T06:07:21;17.02;87.90
67157;SHT31;54086;50.126;8.710;2023-09-19T06:09:47;16.98;87.54
67157;SHT31;54086;50.126;8.710;2023-09-19T06:12:12;16.98;87.42
67157;SHT31;54086;50.126;8.710;2023-09-19T06:14:42;16.89;87.90
67157;SHT31;54086;50.126;8.710;2023-09-19T06:17:08;16.91;88.12
67157;SHT31;54086;50.126;8.710;2023-09-19T06:19:34;16.85;88.51
67157;SHT31;54086;50.126;8.710;2023-09-19T06:21:59;17.00;88.58
67157;SHT31;54086;50.126;8.710;2023-09-19T06:24:25;17.02;88.50
67157;SHT31;54086;50.126;8.710;2023-09-19T06:26:50;17.00;88.60
67157;SHT31;54086;50.126;8.710;2023-09-19T06:29:17;16.96;88.83
67157;SHT31;54086;50.126;8.710;2023-09-19T06:31:43;17.05;88.78
67157;SHT31;54086;50.126;8.710;2023-09-19T06:34:10;17.07;88.90
67157;SHT31;54086;50.126;8.710;2023-09-19T06:36:35;16.95;89.15
67157;SHT31;54086;50.126;8.710;2023-09-19T06:39:01;16.94;89.57
67157;SHT31;54086;50.126;8.710;2023-09-19T06:41:29;16.91;89.81
67157;SHT31;54086;50.126;8.710;2023-09-19T06:43:55;17.02;89.61
67157;SHT31;54086;50.126;8.710;2023-09-19T06:46:20;17.01;89.52
67157;SHT31;54086;50.126;8.710;2023-09-19T06:48:45;16.94;89.42
67157;SHT31;54086;50.126;8.710;2023-09-19T06:51:12;17.02;89.44
67157;SHT31;54086;50.126;8.710;2023-09-19T06:53:41;17.04;89.12
67157;SHT31;54086;50.126;8.710;2023-09-19T06:56:06;17.16;88.78
67157;SHT31;54086;50.126;8.710;2023-09-19T06:58:31;17.15;88.59
67157;SHT31;54086;50.126;8.710;2023-09-19T07:00:57;17.22;88.22
67157;SHT31;54086;50.126;8.710;2023-09-19T07:03:22;17.33;87.82
67157;SHT31;54086;50.126;8.710;2023-09-19T07:05:51;17.28;87.01
67157;SHT31;54086;50.126;8.710;2023-09-19T07:08:18;17.38;86.95
67157;SHT31;54086;50.126;8.710;2023-09-19T07:10:45;17.45;86.70
67157;SHT31;54086;50.126;8.710;2023-09-19T07:13:14;17.35;85.74
67157;SHT31;54086;50.126;8.710;2023-09-19T07:15:42;17.43;85.52
67157;SHT31;54086;50.126;8.710;2023-09-19T07:18:12;17.50;85.47
67157;SHT31;54086;50.126;8.710;2023-09-19T07:20:40;17.49;85.52
67157;SHT31;54086;50.126;8.710;2023-09-19T07:23:10;17.47;85.27
67157;SHT31;54086;50.126;8.710;2023-09-19T07:25:36;17.54;85.20
67157;SHT31;54086;50.126;8.710;2023-09-19T07:28:01;17.70;84.85
67157;SHT31;54086;50.126;8.710;2023-09-19T07:30:27;17.79;84.38
67157;SHT31;54086;50.126;8.710;2023-09-19T07:32:53;17.87;83.95
67157;SHT31;54086;50.126;8.710;2023-09-19T07:35:19;17.97;83.70
67157;SHT31;54086;50.126;8.710;2023-09-19T07:37:48;17.74;83.77
67157;SHT31;54086;50.126;8.710;2023-09-19T07:40:21;17.90;83.11
67157;SHT31;54086;50.126;8.710;2023-09-19T07:42:48;17.70;83.31
67157;SHT31;54086;50.126;8.710;2023-09-19T07:45:15;17.60;83.50
67157;SHT31;54086;50.126;8.710;2023-09-19T07:47:49;17.79;83.07
67157;SHT31;54086;50.126;8.710;2023-09-19T07:50:16;17.87;83.04
67157;SHT31;54086;50.126;8.710;2023-09-19T07:52:44;17.83;82.56
67157;SHT31;54086;50.126;8.710;2023-09-19T07:55:10;17.79;82.47
67157;SHT31;54086;50.126;8.710;2023-09-19T07:57:37;17.97;82.31
67157;SHT31;54086;50.126;8.710;2023-09-19T08:00:03;18.00;81.68
67157;SHT31;54086;50.126;8.710;2023-09-19T08:02:39;18.03;81.70
67157;SHT31;54086;50.126;8.710;2023-09-19T08:05:06;18.08;80.72
67157;SHT31;54086;50.126;8.710;2023-09-19T08:07:38;18.13;80.50
67157;SHT31;54086;50.126;8.710;2023-09-19T08:10:05;18.00;80.75
67157;SHT31;54086;50.126;8.710;2023-09-19T08:12:38;18.18;80.24
67157;SHT31;54086;50.126;8.710;2023-09-19T08:15:14;18.07;80.24
67157;SHT31;54086;50.126;8.710;2023-09-19T08:17:40;18.25;79.65
67157;SHT31;54086;50.126;8.710;2023-09-19T08:20:07;17.97;79.81
67157;SHT31;54086;50.126;8.710;2023-09-19T08:22:32;17.90;79.01
67157;SHT31;54086;50.126;8.710;2023-09-19T08:24:58;17.87;79.43
67157;SHT31;54086;50.126;8.710;2023-09-19T08:27:23;18.13;78.96
67157;SHT31;54086;50.126;8.710;2023-09-19T08:29:52;18.53;77.33
67157;SHT31;54086;50.126;8.710;2023-09-19T08:32:18;18.66;77.22
67157;SHT31;54086;50.126;8.710;2023-09-19T08:34:49;18.44;77.00
67157;SHT31;54086;50.126;8.710;2023-09-19T08:37:14;18.58;77.16
67157;SHT31;54086;50.126;8.710;2023-09-19T08:39:40;18.34;77.21
67157;SHT31;54086;50.126;8.710;2023-09-19T08:42:06;18.21;77.25
67157;SHT31;54086;50.126;8.710;2023-09-19T08:44:36;18.24;77.57
67157;SHT31;54086;50.126;8.710;2023-09-19T08:47:09;19.14;75.95
67157;SHT31;54086;50.126;8.710;2023-09-19T08:52:41;19.57;74.02
67157;SHT31;54086;50.126;8.710;2023-09-19T08:55:07;19.27;72.85
67157;SHT31;54086;50.126;8.710;2023-09-19T08:57:37;19.51;72.49
67157;SHT31;54086;50.126;8.710;2023-09-19T09:00:07;19.86;71.54
67157;SHT31;54086;50.126;8.710;2023-09-19T09:02:38;19.77;70.87
67157;SHT31;54086;50.126;8.710;2023-09-19T09:05:08;20.18;69.98
67157;SHT31;54086;50.126;8.710;2023-09-19T09:07:35;20.06;69.48
67157;SHT31;54086;50.126;8.710;2023-09-19T09:10:05;20.25;67.76
67157;SHT31;54086;50.126;8.710;2023-09-19T09:12:31;19.50;69.94
67157;SHT31;54086;50.126;8.710;2023-09-19T09:14:56;19.46;69.98
67157;SHT31;54086;50.126;8.710;2023-09-19T09:17:26;19.44;69.56
67157;SHT31;54086;50.126;8.710;2023-09-19T09:19:54;20.13;68.37
67157;SHT31;54086;50.126;8.710;2023-09-19T09:22:19;19.99;68.15
67157;SHT31;54086;50.126;8.710;2023-09-19T09:24:56;20.85;66.94
67157;SHT31;54086;50.126;8.710;2023-09-19T09:27:26;20.33;66.72
67157;SHT31;54086;50.126;8.710;2023-09-19T09:29:52;19.86;68.34
67157;SHT31;54086;50.126;8.710;2023-09-19T09:34:57;19.88;67.31
67157;SHT31;54086;50.126;8.710;2023-09-19T09:37:24;20.47;66.64
67157;SHT31;54086;50.126;8.710;2023-09-19T09:39:57;20.09;67.21
67157;SHT31;54086;50.126;8.710;2023-09-19T09:42:43;19.74;67.72
67157;SHT31;54086;50.126;8.710;2023-09-19T09:47:45;20.02;67.59
67157;SHT31;54086;50.126;8.710;2023-09-19T09:50:33;19.68;67.88
67157;SHT31;54086;50.126;8.710;2023-09-19T09:53:28;20.12;66.74
67157;SHT31;54086;50.126;8.710;2023-09-19T09:56:07;20.20;65.84
67157;SHT31;54086;50.126;8.710;2023-09-19T09:58:37;20.50;65.07
67157;SHT31;54086;50.126;8.710;2023-09-19T10:01:06;20.37;64.62
67157;SHT31;54086;50.126;8.710;2023-09-19T10:03:38;20.80;63.27
67157;SHT31;54086;50.126;8.710;2023-09-19T10:06:14;20.37;63.98
67157;SHT31;54086;50.126;8.710;2023-09-19T10:12:05;21.37;62.62
67157;SHT31;54086;50.126;8.710;2023-09-19T10:14:36;21.14;62.43
67157;SHT31;54086;50.126;8.710;2023-09-19T10:17:05;21.45;61.63
67157;SHT31;54086;50.126;8.710;2023-09-19T10:19:46;21.80;61.09
67157;SHT31;54086;50.126;8.710;2023-09-19T10:22:19;21.90;60.46
67157;SHT31;54086;50.126;8.710;2023-09-19T10:24:49;21.73;60.97
67157;SHT31;54086;50.126;8.710;2023-09-19T10:27:21;21.67;61.67
67157;SHT31;54086;50.126;8.710;2023-09-19T10:29:51;21.28;62.07
67157;SHT31;54086;50.126;8.710;2023-09-19T10:32:22;21.93;61.53
67157;SHT31;54086;50.126;8.710;2023-09-19T10:34:49;22.07;60.50
67157;SHT31;54086;50.126;8.710;2023-09-19T10:37:16;21.45;62.38
67157;SHT31;54086;50.126;8.710;2023-09-19T10:39:46;22.07;60.99
67157;SHT31;54086;50.126;8.710;2023-09-19T10:42:15;22.01;61.31
67157;SHT31;54086;50.126;8.710;2023-09-19T10:44:42;21.17;62.53
67157;SHT31;54086;50.126;8.710;2023-09-19T10:47:11;21.22;62.14
67157;SHT31;54086;50.126;8.710;2023-09-19T10:49:44;20.71;62.16
67157;SHT31;54086;50.126;8.710;2023-09-19T10:52:13;20.88;61.68
67157;SHT31;54086;50.126;8.710;2023-09-19T10:54:46;21.09;61.30
67157;SHT31;54086;50.126;8.710;2023-09-19T10:57:19;21.83;59.04
67157;SHT31;54086;50.126;8.710;2023-09-19T11:00:05;21.43;60.92
67157;SHT31;54086;50.126;8.710;2023-09-19T11:05:39;21.37;61.03
67157;SHT31;54086;50.126;8.710;2023-09-19T11:08:10;21.73;58.94
67157;SHT31;54086;50.126;8.710;2023-09-19T11:10:50;21.97;58.22
67157;SHT31;54086;50.126;8.710;2023-09-19T11:13:29;22.82;56.71
67157;SHT31;54086;50.126;8.710;2023-09-19T11:24:31;22.38;57.59
67157;SHT31;54086;50.126;8.710;2023-09-19T11:27:12;21.75;58.23
67157;SHT31;54086;50.126;8.710;2023-09-19T11:29:42;21.56;58.71
67157;SHT31;54086;50.126;8.710;2023-09-19T11:32:08;22.25;57.86
67157;SHT31;54086;50.126;8.710;2023-09-19T11:34:39;22.55;57.45
67157;SHT31;54086;50.126;8.710;2023-09-19T11:39:39;21.52;59.72
67157;SHT31;54086;50.126;8.710;2023-09-19T11:48:23;22.78;56.31
67157;SHT31;54086;50.126;8.710;2023-09-19T11:50:52;22.78;55.88
67157;SHT31;54086;50.126;8.710;2023-09-19T11:53:18;22.57;56.06
67157;SHT31;54086;50.126;8.710;2023-09-19T11:55:45;22.40;56.64
67157;SHT31;54086;50.126;8.710;2023-09-19T11:58:15;22.66;56.70
67157;SHT31;54086;50.126;8.710;2023-09-19T12:00:43;22.75;55.61
67157;SHT31;54086;50.126;8.710;2023-09-19T12:03:10;22.36;55.69
67157;SHT31;54086;50.126;8.710;2023-09-19T12:05:37;22.30;56.23
67157;SHT31;54086;50.126;8.710;2023-09-19T12:08:04;22.45;56.45
67157;SHT31;54086;50.126;8.710;2023-09-19T12:10:33;23.22;53.64
67157;SHT31;54086;50.126;8.710;2023-09-19T12:12:58;22.36;55.32
67157;SHT31;54086;50.126;8.710;2023-09-19T12:15:28;23.15;54.54
67157;SHT31;54086;50.126;8.710;2023-09-19T12:18:00;23.53;53.99
67157;SHT31;54086;50.126;8.710;2023-09-19T12:20:45;24.37;51.95
67157;SHT31;54086;50.126;8.710;2023-09-19T12:23:15;25.07;51.02
67157;SHT31;54086;50.126;8.710;2023-09-19T12:25:42;24.21;52.48
67157;SHT31;54086;50.126;8.710;2023-09-19T12:28:12;23.67;53.08
67157;SHT31;54086;50.126;8.710;2023-09-19T12:30:38;24.25;52.62
67157;SHT31;54086;50.126;8.710;2023-09-19T12:33:17;24.52;52.01
67157;SHT31;54086;50.126;8.710;2023-09-19T12:35:44;24.83;52.14
67157;SHT31;54086;50.126;8.710;2023-09-19T12:38:10;25.18;50.64
67157;SHT31;54086;50.126;8.710;2023-09-19T12:40:38;25.13;50.61
67157;SHT31;54086;50.126;8.710;2023-09-19T12:43:08;24.74;50.73
67157;SHT31;54086;50.126;8.710;2023-09-19T12:45:35;25.62;49.25
67157;SHT31;54086;50.126;8.710;2023-09-19T12:53:28;24.53;50.19
67157;SHT31;54086;50.126;8.710;2023-09-19T12:56:00;24.09;51.14
67157;SHT31;54086;50.126;8.710;2023-09-19T12:58:27;24.25;51.15
67157;SHT31;54086;50.126;8.710;2023-09-19T13:00:56;23.98;51.63
67157;SHT31;54086;50.126;8.710;2023-09-19T13:03:26;24.32;51.01
67157;SHT31;54086;50.126;8.710;2023-09-19T13:05:58;25.63;48.15
67157;SHT31;54086;50.126;8.710;2023-09-19T13:08:32;26.22;47.49
67157;SHT31;54086;50.126;8.710;2023-09-19T13:13:45;24.91;49.33
67157;SHT31;54086;50.126;8.710;2023-09-19T13:16:14;25.00;48.40
67157;SHT31;54086;50.126;8.710;2023-09-19T13:18:58;25.14;48.62
67157;SHT31;54086;50.126;8.710;2023-09-19T13:21:31;25.15;49.12
67157;SHT31;54086;50.126;8.710;2023-09-19T13:24:24;26.14;46.82
67157;SHT31;54086;50.126;8.710;2023-09-19T13:26:53;24.51;49.82
67157;SHT31;54086;50.126;8.710;2023-09-19T13:29:18;24.67;49.64
67157;SHT31;54086;50.126;8.710;2023-09-19T13:34:13;25.86;47.08
67157;SHT31;54086;50.126;8.710;2023-09-19T13:36:41;26.91;45.77
67157;SHT31;54086;50.126;8.710;2023-09-19T13:39:07;26.16;46.78
67157;SHT31;54086;50.126;8.710;2023-09-19T13:41:34;24.55;49.62
67157;SHT31;54086;50.126;8.710;2023-09-19T13:44:02;23.54;51.64
67157;SHT31;54086;50.126;8.710;2023-09-19T13:46:28;23.42;52.13
67157;SHT31;54086;50.126;8.710;2023-09-19T13:48:53;23.06;52.07
67157;SHT31;54086;50.126;8.710;2023-09-19T13:51:20;23.40;51.86
67157;SHT31;54086;50.126;8.710;2023-09-19T13:53:48;23.44;51.69
67157;SHT31;54086;50.126;8.710;2023-09-19T13:56:13;23.28;52.62
67157;SHT31;54086;50.126;8.710;2023-09-19T13:58:39;24.16;51.34
67157;SHT31;54086;50.126;8.710;2023-09-19T14:01:07;24.12;51.32
67157;SHT31;54086;50.126;8.710;2023-09-19T14:03:37;24.35;51.68
67157;SHT31;54086;50.126;8.710;2023-09-19T14:06:03;24.12;51.89
67157;SHT31;54086;50.126;8.710;2023-09-19T14:08:29;24.35;51.59
67157;SHT31;54086;50.126;8.710;2023-09-19T14:10:54;25.25;50.14
67157;SHT31;54086;50.126;8.710;2023-09-19T14:13:20;24.62;50.84
67157;SHT31;54086;50.126;8.710;2023-09-19T14:15:46;24.46;50.64
67157;SHT31;54086;50.126;8.710;2023-09-19T14:18:11;24.83;49.99
67157;SHT31;54086;50.126;8.710;2023-09-19T14:20:38;24.79;50.14
67157;SHT31;54086;50.126;8.710;2023-09-19T14:23:07;24.32;50.98
67157;SHT31;54086;50.126;8.710;2023-09-19T14:25:36;24.04;52.16
67157;SHT31;54086;50.126;8.710;2023-09-19T14:28:04;23.68;52.38
67157;SHT31;54086;50.126;8.710;2023-09-19T14:30:30;23.42;53.06
67157;SHT31;54086;50.126;8.710;2023-09-19T14:32:55;23.33;53.27
67157;SHT31;54086;50.126;8.710;2023-09-19T14:35:23;23.78;52.55
67157;SHT31;54086;50.126;8.710;2023-09-19T14:37:48;23.88;52.33
67157;SHT31;54086;50.126;8.710;2023-09-19T14:40:14;23.82;51.01
67157;SHT31;54086;50.126;8.710;2023-09-19T14:42:43;23.58;51.62
67157;SHT31;54086;50.126;8.710;2023-09-19T14:45:10;23.13;51.82
67157;SHT31;54086;50.126;8.710;2023-09-19T14:47:37;22.59;53.10
67157;SHT31;54086;50.126;8.710;2023-09-19T14:50:03;22.68;53.26
67157;SHT31;54086;50.126;8.710;2023-09-19T14:52:32;22.61;53.67
67157;SHT31;54086;50.126;8.710;2023-09-19T14:54:59;22.36;54.47
67157;SHT31;54086;50.126;8.710;2023-09-19T14:57:24;22.21;54.68
67157;SHT31;54086;50.126;8.710;2023-09-19T14:59:53;22.38;54.18
67157;SHT31;54086;50.126;8.710;2023-09-19T15:02:18;22.48;54.31
67157;SHT31;54086;50.126;8.710;2023-09-19T15:04:44;22.27;54.45
67157;SHT31;54086;50.126;8.710;2023-09-19T15:07:12;22.38;54.82
67157;SHT31;54086;50.126;8.710;2023-09-19T15:09:38;22.31;55.05
67157;SHT31;54086;50.126;8.710;2023-09-19T15:12:03;22.36;55.22
67157;SHT31;54086;50.126;8.710;2023-09-19T15:14:29;22.33;55.49
67157;SHT31;54086;50.126;8.710;2023-09-19T15:16:57;22.28;55.41
67157;SHT31;54086;50.126;8.710;2023-09-19T15:19:22;22.28;55.60
67157;SHT31;54086;50.126;8.710;2023-09-19T15:21:49;22.30;55.73
67157;SHT31;54086;50.126;8.710;2023-09-19T15:24:14;22.24;55.74
67157;SHT31;54086;50.126;8.710;2023-09-19T15:26:40;22.22;55.95
67157;SHT31;54086;50.126;8.710;2023-09-19T15:29:06;22.06;56.67
67157;SHT31;54086;50.126;8.710;2023-09-19T15:31:32;22.25;56.37
67157;SHT31;54086;50.126;8.710;2023-09-19T15:33:58;21.92;56.91
67157;SHT31;54086;50.126;8.710;2023-09-19T15:36:23;22.11;56.93
67157;SHT31;54086;50.126;8.710;2023-09-19T15:41:25;22.18;56.90
67157;SHT31;54086;50.126;8.710;2023-09-19T15:43:52;22.04;57.32
67157;SHT31;54086;50.126;8.710;2023-09-19T15:46:19;21.97;57.65
67157;SHT31;54086;50.126;8.710;2023-09-19T15:48:45;22.04;57.78
67157;SHT31;54086;50.126;8.710;2023-09-19T15:51:11;22.07;57.65
67157;SHT31;54086;50.126;8.710;2023-09-19T15:53:48;22.06;57.72
67157;SHT31;54086;50.126;8.710;2023-09-19T15:56:14;22.00;57.78
67157;SHT31;54086;50.126;8.710;2023-09-19T15:58:44;22.10;57.67
67157;SHT31;54086;50.126;8.710;2023-09-19T16:01:10;22.07;57.85
67157;SHT31;54086;50.126;8.710;2023-09-19T16:03:51;21.96;58.31
67157;SHT31;54086;50.126;8.710;2023-09-19T16:06:22;21.86;58.56
67157;SHT31;54086;50.126;8.710;2023-09-19T16:08:52;21.73;59.01
67157;SHT31;54086;50.126;8.710;2023-09-19T16:11:19;21.80;58.93
67157;SHT31;54086;50.126;8.710;2023-09-19T16:13:49;21.94;59.03
67157;SHT31;54086;50.126;8.710;2023-09-19T16:16:16;21.98;58.95
67157;SHT31;54086;50.126;8.710;2023-09-19T16:18:46;21.89;59.24
67157;SHT31;54086;50.126;8.710;2023-09-19T16:21:13;21.98;59.03
67157;SHT31;54086;50.126;8.710;2023-09-19T16:23:38;21.94;59.38
67157;SHT31;54086;50.126;8.710;2023-09-19T16:26:05;21.96;59.57
67157;SHT31;54086;50.126;8.710;2023-09-19T16:28:32;21.83;59.96